createdAt,value
2018-12-05T11:45:46.279Z,6.46
2018-12-05T11:47:13.115Z,6.48
2018-12-05T11:51:15.173Z,6.50
2018-12-05T11:52:41.746Z,6.50
2018-12-05T11:54:09.079Z,6.47
2018-12-05T11:55:36.371Z,6.45
2018-12-05T11:57:03.705Z,6.43
2018-12-05T12:07:14.299Z,6.39
2018-12-05T12:14:00.890Z,6.51
2018-12-05T12:15:27.490Z,6.54
2018-12-05T12:16:54.617Z,6.57
2018-12-05T12:18:22.037Z,6.60
2018-12-05T12:19:49.150Z,6.59
2018-12-05T12:21:16.528Z,6.59
2018-12-05T12:22:43.881Z,6.60
2018-12-05T12:24:11.104Z,6.59
2018-12-05T12:25:38.331Z,6.60
2018-12-05T12:27:05.716Z,6.60
2018-12-05T12:28:33.142Z,6.61
2018-12-05T12:30:00.333Z,6.62
2018-12-05T12:31:27.701Z,6.62
2018-12-05T12:32:55.080Z,6.61
2018-12-05T12:34:22.152Z,6.60
2018-12-05T12:35:49.568Z,6.58
2018-12-05T12:37:16.843Z,6.57
2018-12-05T12:38:44.070Z,6.56
2018-12-05T12:40:11.417Z,6.54
2018-12-05T12:47:56.724Z,6.64
2018-12-05T12:49:23.223Z,6.67
2018-12-05T12:50:50.467Z,6.71
2018-12-05T12:52:17.741Z,6.76
2018-12-05T12:53:45.087Z,6.79
2018-12-05T12:55:12.595Z,6.84
2018-12-05T12:56:39.725Z,6.90
2018-12-05T12:58:06.930Z,6.97
2018-12-05T12:59:34.240Z,7.05
2018-12-05T13:01:01.502Z,7.13
2018-12-05T13:02:28.806Z,7.22
2018-12-05T13:03:56.163Z,7.30
2018-12-05T13:05:23.567Z,7.38
2018-12-05T13:06:50.912Z,7.46
2018-12-05T13:08:18.224Z,7.55
2018-12-05T13:09:45.697Z,7.64
2018-12-05T13:11:13.074Z,7.70
2018-12-05T13:12:40.577Z,7.76
2018-12-05T13:14:07.902Z,7.83
2018-12-05T13:15:35.320Z,7.85
2018-12-05T13:17:02.451Z,7.89
2018-12-05T13:18:29.934Z,7.92
2018-12-05T13:19:57.148Z,7.89
2018-12-05T13:21:24.578Z,7.88
2018-12-05T13:22:52.046Z,7.85
2018-12-05T13:24:19.524Z,7.83
2018-12-05T13:25:46.607Z,7.83
2018-12-05T13:27:14.032Z,7.82
2018-12-05T13:28:41.320Z,7.82
2018-12-05T13:30:08.634Z,7.79
2018-12-05T13:31:36.079Z,7.75
2018-12-05T13:33:03.416Z,7.68
2018-12-05T13:34:30.863Z,7.61
2018-12-05T13:35:58.156Z,7.55
2018-12-05T13:37:25.612Z,7.49
2018-12-05T13:38:53.013Z,7.41
2018-12-05T13:41:47.953Z,7.27
2018-12-05T13:43:15.233Z,7.20
2018-12-05T13:44:42.346Z,7.11
2018-12-05T13:46:09.465Z,6.99
2018-12-05T13:47:36.782Z,6.89
2018-12-05T13:49:04.100Z,6.82
2018-12-05T13:50:31.400Z,6.75
2018-12-05T13:51:58.841Z,6.66
2018-12-05T13:53:26.047Z,6.60
2018-12-05T13:54:53.310Z,6.54
2018-12-05T13:56:20.579Z,6.48
2018-12-05T13:57:48.002Z,6.44
2018-12-05T13:59:15.425Z,6.39
2018-12-05T14:00:42.701Z,6.32
2018-12-05T14:02:09.935Z,6.27
2018-12-05T14:03:37.090Z,6.23
2018-12-05T14:05:04.372Z,6.16
2018-12-05T14:06:31.664Z,6.10
2018-12-05T14:07:58.875Z,6.05
2018-12-05T14:09:26.198Z,6.00
2018-12-05T14:10:53.463Z,5.96
2018-12-05T14:12:20.752Z,5.89
2018-12-05T14:13:48.211Z,5.80
2018-12-05T14:15:15.563Z,5.75
2018-12-05T14:16:42.649Z,5.69
2018-12-05T14:18:09.961Z,5.65
2018-12-05T14:19:37.217Z,5.63
2018-12-05T14:22:12.586Z,5.57
2018-12-05T14:36:54.368Z,5.53
2018-12-05T14:38:20.951Z,5.54
2018-12-05T14:39:48.120Z,5.53
2018-12-05T14:41:15.236Z,5.50
2018-12-05T14:42:42.483Z,5.46
2018-12-05T14:44:09.763Z,5.42
2018-12-05T14:45:37.097Z,5.35
2018-12-05T14:47:04.366Z,5.31
2018-12-05T15:02:44.512Z,5.20
2018-12-05T15:04:11.288Z,5.21
2018-12-05T15:05:38.393Z,5.18
2018-12-05T15:07:05.652Z,5.15
2018-12-05T15:08:32.947Z,5.08
2018-12-05T15:10:00.173Z,5.03
2018-12-05T15:11:27.533Z,4.96
2018-12-05T15:13:00.830Z,4.89
2018-12-05T15:34:53.254Z,4.81
2018-12-05T15:36:19.728Z,4.79
2018-12-05T15:37:46.669Z,4.74
2018-12-05T15:39:13.815Z,4.69
2018-12-05T15:40:41.045Z,4.64
2018-12-05T15:42:08.358Z,4.59
2018-12-05T16:04:35.777Z,4.31
2018-12-05T17:45:42.650Z,3.57
2018-12-05T17:47:09.162Z,3.50
2018-12-05T17:48:36.104Z,3.44
2018-12-05T19:49:26.098Z,3.55
2018-12-05T19:53:47.187Z,3.53
2018-12-05T19:56:31.231Z,3.49
2018-12-05T19:58:26.819Z,3.40
2018-12-05T20:34:56.850Z,3.60
2018-12-05T20:36:23.241Z,3.62
2018-12-05T20:37:50.290Z,3.63
2018-12-05T20:39:17.279Z,3.61
2018-12-05T20:40:44.698Z,3.61
2018-12-05T20:42:11.907Z,3.60
2018-12-05T20:43:39.149Z,3.58
2018-12-05T20:45:06.304Z,3.55
2018-12-05T20:46:33.401Z,3.53
2018-12-05T20:48:00.461Z,3.50
2018-12-05T20:49:27.731Z,3.47
2018-12-05T20:59:57.673Z,3.51
2018-12-05T21:01:24.235Z,3.55
2018-12-05T21:02:50.996Z,3.57
2018-12-05T21:04:18.312Z,3.58
2018-12-05T21:05:45.549Z,3.57
2018-12-05T21:07:12.691Z,3.52
2018-12-05T21:08:39.440Z,3.50
2018-12-05T21:10:06.701Z,3.45
2018-12-05T21:11:33.842Z,3.40
2018-12-05T21:13:01.001Z,3.39
2018-12-05T21:14:28.190Z,3.33
2018-12-05T21:15:55.500Z,3.30
2018-12-05T21:17:22.643Z,3.31
2018-12-05T21:18:49.713Z,3.30
2018-12-05T21:20:16.938Z,3.27
2018-12-05T21:21:43.995Z,3.23
2018-12-05T21:47:34.701Z,3.33
2018-12-05T21:49:01.236Z,3.30
2018-12-05T21:50:47.762Z,3.27
2018-12-05T21:52:14.517Z,3.25
2018-12-05T22:08:23.546Z,3.19
2018-12-05T22:09:50.197Z,3.22
2018-12-05T22:11:16.996Z,3.24
2018-12-05T22:12:44.088Z,3.23
2018-12-05T22:14:11.213Z,3.24
2018-12-05T22:15:38.370Z,3.26
2018-12-05T22:17:05.596Z,3.27
2018-12-05T22:18:32.849Z,3.28
2018-12-05T22:19:59.992Z,3.30
2018-12-05T22:21:27.085Z,3.30
2018-12-05T22:22:54.105Z,3.31
2018-12-05T22:24:21.304Z,3.31
2018-12-05T22:25:48.409Z,3.33
2018-12-05T22:27:15.653Z,3.34
2018-12-05T22:28:42.898Z,3.34
2018-12-05T22:30:09.975Z,3.35
2018-12-05T22:31:37.109Z,3.33
2018-12-05T22:33:04.332Z,3.33
2018-12-05T22:34:31.495Z,3.31
2018-12-05T22:35:58.562Z,3.31
2018-12-05T22:37:25.743Z,3.32
2018-12-05T22:38:52.692Z,3.31
2018-12-05T22:40:19.682Z,3.31
2018-12-05T22:41:47.020Z,3.32
2018-12-05T22:43:14.169Z,3.33
2018-12-05T22:44:41.050Z,3.33
2018-12-05T22:46:08.217Z,3.34
2018-12-05T22:47:35.459Z,3.34
2018-12-05T22:49:02.698Z,3.32
2018-12-05T22:50:30.058Z,3.31
2018-12-05T22:51:57.178Z,3.28
2018-12-05T22:53:24.269Z,3.29
2018-12-05T22:54:51.476Z,3.31
2018-12-05T22:56:18.629Z,3.31
2018-12-05T22:57:45.957Z,3.32
2018-12-05T22:59:13.070Z,3.29
2018-12-05T23:00:40.262Z,3.31
2018-12-05T23:02:07.478Z,3.32
2018-12-05T23:03:34.607Z,3.32
2018-12-05T23:05:07.812Z,3.30
2018-12-05T23:06:28.890Z,3.32
2018-12-05T23:07:56.125Z,3.34
2018-12-05T23:09:23.366Z,3.37
2018-12-05T23:10:50.399Z,3.39
2018-12-05T23:12:17.590Z,3.43
2018-12-05T23:13:44.650Z,3.45
2018-12-05T23:15:11.894Z,3.48
2018-12-05T23:16:39.077Z,3.49
2018-12-05T23:18:06.370Z,3.50
2018-12-05T23:19:33.735Z,3.51
2018-12-05T23:21:00.665Z,3.49
2018-12-05T23:22:27.972Z,3.46
2018-12-05T23:23:55.134Z,3.47
2018-12-05T23:25:22.324Z,3.46
2018-12-05T23:26:49.395Z,3.48
2018-12-05T23:28:16.354Z,3.50
2018-12-05T23:29:43.601Z,3.51
2018-12-05T23:31:10.678Z,3.52
2018-12-05T23:32:38.001Z,3.53
2018-12-05T23:34:05.044Z,3.53
2018-12-05T23:35:32.268Z,3.55
2018-12-05T23:36:59.269Z,3.56
2018-12-05T23:38:26.634Z,3.55
2018-12-05T23:39:53.664Z,3.56
2018-12-05T23:41:20.851Z,3.57
2018-12-05T23:42:48.029Z,3.58
2018-12-05T23:44:15.242Z,3.60
2018-12-05T23:45:42.410Z,3.60
2018-12-05T23:47:09.661Z,3.62
2018-12-05T23:48:36.907Z,3.63
2018-12-05T23:50:04.036Z,3.63
2018-12-05T23:51:31.162Z,3.65
2018-12-05T23:52:58.399Z,3.64
2018-12-05T23:54:25.529Z,3.64
2018-12-05T23:55:52.619Z,3.64
2018-12-05T23:57:19.958Z,3.65
2018-12-05T23:58:47.067Z,3.65
